Wetterdaten: aktuell Samstag, 23.02.2019 13:30
Datum Zeit Temp. A. Feuchte A. Luftdruck Regen Wind Richtung Richtung Taupunkt Windchill Windben Empfang
23.02.2019 13:30 9,8 C 64 % 1038,5 hPa 0,0 l/m 4,3 km/h (1 Bft) SO 144 3,3 C 9,8 C 14,4 km/h (3 Bft) 99 %
23.02.2019 13:20 9,6 C 64 % 1038,7 hPa 0,0 l/m 4,7 km/h (1 Bft) SO 128 3,1 C 9,6 C 12,4 km/h (3 Bft) 98 %
23.02.2019 13:10 9,6 C 67 % 1038,8 hPa 0,0 l/m 5,8 km/h (2 Bft) SW 220 3,8 C 9,6 C 16,5 km/h (3 Bft) 99 %
23.02.2019 13:00 9,3 C 68 % 1039,0 hPa 0,0 l/m 6,9 km/h (2 Bft) O-SO 106 3,7 C 8,9 C 18,5 km/h (3 Bft) 99 %
23.02.2019 12:50 9,0 C 69 % 1039,0 hPa 0,0 l/m 4,2 km/h (1 Bft) S 178 3,6 C 9,0 C 12,4 km/h (3 Bft) 98 %
23.02.2019 12:40 8,8 C 69 % 1039,2 hPa 0,0 l/m 4,3 km/h (1 Bft) O 93 3,4 C 8,8 C 14,4 km/h (3 Bft) 99 %
23.02.2019 12:30 8,4 C 70 % 1039,2 hPa 0,0 l/m 5,3 km/h (1 Bft) SO 145 3,3 C 8,4 C 18,5 km/h (3 Bft) 99 %
23.02.2019 12:20 8,3 C 70 % 1039,2 hPa 0,0 l/m 4,9 km/h (1 Bft) S 178 3,2 C 8,3 C 18,5 km/h (3 Bft) 99 %
23.02.2019 12:10 7,8 C 71 % 1039,3 hPa 0,0 l/m 3,3 km/h (1 Bft) S-SO 157 2,9 C 7,8 C 10,3 km/h (2 Bft) 100 %
23.02.2019 12:00 7,6 C 71 % 1039,3 hPa 0,0 l/m 3,4 km/h (1 Bft) S-SW 192 2,7 C 7,6 C 8,2 km/h (2 Bft) 99 %
23.02.2019 11:50 7,4 C 72 % 1039,4 hPa 0,0 l/m 4,7 km/h (1 Bft) S-SW 196 2,7 C 7,4 C 20,6 km/h (4 Bft) 99 %
23.02.2019 11:40 7,1 C 74 % 1039,6 hPa 0,0 l/m 5,9 km/h (2 Bft) S 178 2,8 C 7,1 C 14,4 km/h (3 Bft) 100 %
23.02.2019 11:30 6,7 C 75 % 1039,7 hPa 0,0 l/m 4,0 km/h (1 Bft) S-SO 150 2,6 C 6,7 C 16,5 km/h (3 Bft) 100 %
23.02.2019 11:20 6,1 C 76 % 1039,8 hPa 0,0 l/m 4,3 km/h (1 Bft) SO 142 2,2 C 6,1 C 12,4 km/h (3 Bft) 100 %
23.02.2019 11:10 5,6 C 80 % 1039,9 hPa 0,0 l/m 3,7 km/h (1 Bft) SO 126 2,4 C 5,6 C 16,5 km/h (3 Bft) 98 %
23.02.2019 11:00 5,1 C 79 % 1039,9 hPa 0,0 l/m 5,0 km/h (1 Bft) S 182 1,8 C 5,1 C 18,5 km/h (3 Bft) 100 %
23.02.2019 10:50 4,7 C 80 % 1039,8 hPa 0,0 l/m 5,3 km/h (1 Bft) S 188 1,6 C 4,7 C 14,4 km/h (3 Bft) 99 %
23.02.2019 10:40 4,4 C 81 % 1039,8 hPa 0,0 l/m 4,0 km/h (1 Bft) S-SW 194 1,4 C 4,4 C 12,4 km/h (3 Bft) 100 %
23.02.2019 10:30 4,2 C 82 % 1039,9 hPa 0,0 l/m 4,3 km/h (1 Bft) S-SO 168 1,4 C 4,2 C 10,3 km/h (2 Bft) 99 %
23.02.2019 10:20 3,9 C 83 % 1040,0 hPa 0,0 l/m 4,2 km/h (1 Bft) SO 141 1,3 C 3,9 C 14,4 km/h (3 Bft) 99 %
23.02.2019 10:10 3,8 C 85 % 1040,1 hPa 0,0 l/m 4,0 km/h (1 Bft) SO 128 1,5 C 3,8 C 14,4 km/h (3 Bft) 97 %
23.02.2019 10:00 3,6 C 88 % 1040,2 hPa 0,0 l/m 4,3 km/h (1 Bft) S-SO 150 1,8 C 3,6 C 16,5 km/h (3 Bft) 97 %
23.02.2019 09:50 3,4 C 90 % 1040,1 hPa 0,0 l/m 5,2 km/h (1 Bft) O 96 1,9 C 3,4 C 18,5 km/h (3 Bft) 99 %
23.02.2019 09:40 3,2 C 92 % 1040,1 hPa 0,0 l/m 5,7 km/h (1 Bft) O 99 2,0 C 3,2 C 18,5 km/h (3 Bft) 98 %
23.02.2019 09:30 2,9 C 94 % 1040,2 hPa 0,0 l/m 5,5 km/h (1 Bft) SO 131 2,0 C 2,9 C 18,5 km/h (3 Bft) 100 %
23.02.2019 09:20 2,8 C 95 % 1040,4 hPa 0,0 l/m 3,5 km/h (1 Bft) O-SO 109 2,1 C 2,8 C 18,5 km/h (3 Bft) 100 %
23.02.2019 09:10 2,7 C 95 % 1040,3 hPa 0,0 l/m 5,3 km/h (1 Bft) O-SO 113 2,0 C 2,7 C 18,5 km/h (3 Bft) 98 %
23.02.2019 09:00 2,7 C 96 % 1040,3 hPa 0,0 l/m 4,9 km/h (1 Bft) O-NO 72 2,1 C 2,7 C 18,5 km/h (3 Bft) 100 %
23.02.2019 08:50 2,7 C 96 % 1040,2 hPa 0,0 l/m 4,4 km/h (1 Bft) S 182 2,1 C 2,7 C 16,5 km/h (3 Bft) 98 %
23.02.2019 08:40 2,6 C 96 % 1040,1 hPa 0,0 l/m 4,2 km/h (1 Bft) O-SO 120 2,0 C 2,6 C 14,4 km/h (3 Bft) 100 %
23.02.2019 08:30 2,6 C 96 % 1039,9 hPa 0,0 l/m 4,9 km/h (1 Bft) S-SO 161 2,0 C 2,6 C 18,5 km/h (3 Bft) 99 %
23.02.2019 08:20 2,6 C 96 % 1040,0 hPa 0,0 l/m 7,0 km/h (2 Bft) O-SO 119 2,0 C 2,0 C 18,5 km/h (3 Bft) 99 %
23.02.2019 08:10 2,5 C 96 % 1039,8 hPa 0,0 l/m 7,6 km/h (2 Bft) O 81 1,9 C 1,3 C 22,7 km/h (4 Bft) 100 %
23.02.2019 08:00 2,5 C 96 % 1039,9 hPa 0,0 l/m 6,3 km/h (2 Bft) S 186 1,9 C 2,5 C 14,4 km/h (3 Bft) 99 %
23.02.2019 07:50 2,6 C 96 % 1039,9 hPa 0,0 l/m 6,4 km/h (2 Bft) SO 134 2,0 C 2,6 C 18,5 km/h (3 Bft) 100 %
23.02.2019 07:40 2,7 C 95 % 1039,8 hPa 0,0 l/m 4,6 km/h (1 Bft) O 99 2,0 C 2,7 C 12,4 km/h (3 Bft) 98 %
23.02.2019 07:30 2,7 C 95 % 1039,9 hPa 0,0 l/m 5,9 km/h (2 Bft) SO 130 2,0 C 2,7 C 14,4 km/h (3 Bft) 99 %
23.02.2019 07:20 2,8 C 96 % 1039,7 hPa 0,0 l/m 5,2 km/h (1 Bft) O 97 2,2 C 2,8 C 18,5 km/h (3 Bft) 99 %
23.02.2019 07:10 3,0 C 95 % 1039,7 hPa 0,0 l/m 6,1 km/h (2 Bft) O-SO 117 2,3 C 3,0 C 14,4 km/h (3 Bft) 98 %
23.02.2019 07:00 3,1 C 96 % 1039,7 hPa 0,0 l/m 6,1 km/h (2 Bft) SO 133 2,5 C 3,1 C 14,4 km/h (3 Bft) 100 %
23.02.2019 06:50 3,2 C 96 % 1039,8 hPa 0,0 l/m 6,7 km/h (2 Bft) O 88 2,6 C 2,9 C 14,4 km/h (3 Bft) 99 %
23.02.2019 06:40 3,2 C 96 % 1039,9 hPa 0,0 l/m 6,5 km/h (2 Bft) S-SO 155 2,6 C 3,1 C 16,5 km/h (3 Bft) 100 %
23.02.2019 06:30 3,2 C 96 % 1039,8 hPa 0,0 l/m 5,6 km/h (1 Bft) O 84 2,6 C 3,2 C 14,4 km/h (3 Bft) 100 %
23.02.2019 06:20 3,2 C 96 % 1039,9 hPa 0,0 l/m 4,9 km/h (1 Bft) O-NO 78 2,6 C 3,2 C 12,4 km/h (3 Bft) 100 %
23.02.2019 06:10 3,2 C 96 % 1040,0 hPa 0,0 l/m 4,3 km/h (1 Bft) O 98 2,6 C 3,2 C 14,4 km/h (3 Bft) 99 %
23.02.2019 06:00 3,2 C 96 % 1040,0 hPa 0,0 l/m 5,1 km/h (1 Bft) O 95 2,6 C 3,2 C 14,4 km/h (3 Bft) 100 %
23.02.2019 05:50 3,2 C 96 % 1040,1 hPa 0,0 l/m 6,7 km/h (2 Bft) SO 137 2,6 C 2,9 C 16,5 km/h (3 Bft) 100 %
23.02.2019 05:40 3,1 C 95 % 1040,2 hPa 0,0 l/m 5,7 km/h (1 Bft) O 101 2,4 C 3,1 C 16,5 km/h (3 Bft) 100 %
23.02.2019 05:30 3,2 C 95 % 1040,1 hPa 0,0 l/m 6,1 km/h (2 Bft) SO 140 2,5 C 3,2 C 16,5 km/h (3 Bft) 99 %
23.02.2019 05:20 3,1 C 95 % 1040,1 hPa 0,0 l/m 5,5 km/h (1 Bft) SO 125 2,4 C 3,1 C 16,5 km/h (3 Bft) 99 %
23.02.2019 05:10 3,1 C 95 % 1040,2 hPa 0,0 l/m 3,6 km/h (1 Bft) O-SO 123 2,4 C 3,1 C 8,2 km/h (2 Bft) 100 %
23.02.2019 05:00 3,0 C 95 % 1040,2 hPa 0,0 l/m 6,1 km/h (2 Bft) O-SO 115 2,3 C 3,0 C 14,4 km/h (3 Bft) 98 %
23.02.2019 04:50 2,9 C 95 % 1040,2 hPa 0,0 l/m 5,0 km/h (1 Bft) O-SO 103 2,2 C 2,9 C 16,5 km/h (3 Bft) 99 %
23.02.2019 04:40 2,9 C 95 % 1040,2 hPa 0,0 l/m 5,6 km/h (1 Bft) O-NO 59 2,2 C 2,9 C 16,5 km/h (3 Bft) 99 %
23.02.2019 04:30 2,9 C 95 % 1040,3 hPa 0,0 l/m 3,4 km/h (1 Bft) O 92 2,2 C 2,9 C 10,3 km/h (2 Bft) 99 %
23.02.2019 04:20 2,8 C 95 % 1040,2 hPa 0,0 l/m 2,5 km/h (1 Bft) O 101 2,1 C 2,8 C 8,2 km/h (2 Bft) 100 %
23.02.2019 04:10 2,8 C 95 % 1040,0 hPa 0,0 l/m 3,6 km/h (1 Bft) O-SO 106 2,1 C 2,8 C 12,4 km/h (3 Bft) 100 %
23.02.2019 04:00 2,8 C 95 % 1039,8 hPa 0,0 l/m 3,0 km/h (1 Bft) O-SO 105 2,1 C 2,8 C 10,3 km/h (2 Bft) 97 %
23.02.2019 03:50 2,7 C 95 % 1039,8 hPa 0,0 l/m 2,5 km/h (1 Bft) O-SO 109 2,0 C 2,7 C 10,3 km/h (2 Bft) 99 %
23.02.2019 03:40 2,6 C 95 % 1039,8 hPa 0,0 l/m 3,2 km/h (1 Bft) SO 146 1,9 C 2,6 C 16,5 km/h (3 Bft) 100 %
23.02.2019 03:30 2,4 C 95 % 1039,8 hPa 0,0 l/m 2,1 km/h (1 Bft) SO 131 1,7 C 2,4 C 12,4 km/h (3 Bft) 100 %
23.02.2019 03:20 2,3 C 94 % 1039,8 hPa 0,0 l/m 2,6 km/h (1 Bft) SO 126 1,4 C 2,3 C 10,3 km/h (2 Bft) 99 %
23.02.2019 03:10 2,2 C 94 % 1039,8 hPa 0,0 l/m 3,4 km/h (1 Bft) O-SO 122 1,3 C 2,2 C 14,4 km/h (3 Bft) 100 %
23.02.2019 03:00 2,1 C 94 % 1039,8 hPa 0,0 l/m 2,3 km/h (1 Bft) SO 140 1,2 C 2,1 C 10,3 km/h (2 Bft) 100 %
23.02.2019 02:50 2,1 C 94 % 1039,9 hPa 0,0 l/m 2,0 km/h (1 Bft) O-SO 117 1,2 C 2,1 C 8,2 km/h (2 Bft) 100 %
23.02.2019 02:40 2,1 C 94 % 1039,8 hPa 0,0 l/m 3,6 km/h (1 Bft) O-SO 117 1,2 C 2,1 C 12,4 km/h (3 Bft) 99 %
23.02.2019 02:30 2,1 C 94 % 1039,8 hPa 0,0 l/m 3,7 km/h (1 Bft) O-SO 111 1,2 C 2,1 C 14,4 km/h (3 Bft) 100 %
23.02.2019 02:20 2,2 C 93 % 1039,8 hPa 0,0 l/m 4,1 km/h (1 Bft) O-SO 106 1,2 C 2,2 C 14,4 km/h (3 Bft) 98 %
23.02.2019 02:10 2,2 C 93 % 1040,0 hPa 0,0 l/m 5,3 km/h (1 Bft) S-SO 156 1,2 C 2,2 C 18,5 km/h (3 Bft) 100 %
23.02.2019 02:00 2,3 C 93 % 1040,0 hPa 0,0 l/m 3,5 km/h (1 Bft) S-SW 194 1,3 C 2,3 C 14,4 km/h (3 Bft) 99 %
23.02.2019 01:50 2,4 C 93 % 1040,1 hPa 0,0 l/m 4,1 km/h (1 Bft) O 100 1,4 C 2,4 C 12,4 km/h (3 Bft) 100 %
23.02.2019 01:40 2,5 C 93 % 1040,2 hPa 0,0 l/m 3,2 km/h (1 Bft) SO 140 1,5 C 2,5 C 8,2 km/h (2 Bft) 99 %
23.02.2019 01:30 2,6 C 93 % 1040,3 hPa 0,0 l/m 3,2 km/h (1 Bft) O 100 1,6 C 2,6 C 10,3 km/h (2 Bft) 100 %
23.02.2019 01:20 2,7 C 92 % 1040,3 hPa 0,0 l/m 4,2 km/h (1 Bft) O 97 1,5 C 2,7 C 14,4 km/h (3 Bft) 99 %
23.02.2019 01:10 2,8 C 92 % 1040,4 hPa 0,0 l/m 5,4 km/h (1 Bft) SO 128 1,6 C 2,8 C 14,4 km/h (3 Bft) 98 %
23.02.2019 01:00 2,9 C 92 % 1040,5 hPa 0,0 l/m 5,6 km/h (1 Bft) O 101 1,7 C 2,9 C 14,4 km/h (3 Bft) 99 %
23.02.2019 00:50 3,1 C 92 % 1040,5 hPa 0,0 l/m 6,3 km/h (2 Bft) O 96 1,9 C 3,1 C 16,5 km/h (3 Bft) 100 %
23.02.2019 00:40 3,2 C 92 % 1040,6 hPa 0,0 l/m 7,3 km/h (2 Bft) O-SO 110 2,0 C 2,4 C 16,5 km/h (3 Bft) 100 %
23.02.2019 00:30 3,3 C 91 % 1040,6 hPa 0,0 l/m 6,5 km/h (2 Bft) O 101 2,0 C 3,2 C 16,5 km/h (3 Bft) 100 %
23.02.2019 00:20 3,5 C 91 % 1040,5 hPa 0,0 l/m 5,8 km/h (2 Bft) SO 138 2,2 C 3,5 C 16,5 km/h (3 Bft) 100 %
23.02.2019 00:10 3,7 C 91 % 1040,4 hPa 0,0 l/m 6,3 km/h (2 Bft) O-SO 106 2,4 C 3,7 C 16,5 km/h (3 Bft) 99 %
23.02.2019 00:00 3,8 C 90 % 1040,5 hPa 0,0 l/m 7,2 km/h (2 Bft) O-SO 104 2,3 C 3,1 C 14,4 km/h (3 Bft) 99 %
22.02.2019 23:50 4,0 C 90 % 1040,4 hPa 0,0 l/m 5,3 km/h (1 Bft) O-SO 123 2,5 C 4,0 C 16,5 km/h (3 Bft) 97 %
22.02.2019 23:40 4,2 C 89 % 1040,4 hPa 0,0 l/m 8,3 km/h (2 Bft) SO 131 2,6 C 2,5 C 20,6 km/h (4 Bft) 99 %
22.02.2019 23:30 4,4 C 89 % 1040,4 hPa 0,0 l/m 8,8 km/h (2 Bft) O 100 2,7 C 2,3 C 18,5 km/h (3 Bft) 99 %
22.02.2019 23:20 4,7 C 88 % 1040,5 hPa 0,0 l/m 6,5 km/h (2 Bft) O-SO 104 2,9 C 4,6 C 16,5 km/h (3 Bft) 99 %
22.02.2019 23:10 4,9 C 88 % 1040,5 hPa 0,0 l/m 8,6 km/h (2 Bft) SO 130 3,1 C 3,0 C 18,5 km/h (3 Bft) 99 %
22.02.2019 23:00 5,2 C 89 % 1040,6 hPa 0,0 l/m 7,0 km/h (2 Bft) SO 130 3,5 C 4,7 C 18,5 km/h (3 Bft) 100 %
22.02.2019 22:50 5,4 C 90 % 1040,7 hPa 0,0 l/m 5,9 km/h (2 Bft) O-NO 65 3,9 C 5,4 C 20,6 km/h (4 Bft) 100 %
22.02.2019 22:40 5,7 C 90 % 1040,6 hPa 0,0 l/m 4,1 km/h (1 Bft) O-NO 68 4,2 C 5,7 C 12,4 km/h (3 Bft) 100 %
22.02.2019 22:30 5,9 C 90 % 1040,7 hPa 0,0 l/m 4,2 km/h (1 Bft) O 92 4,4 C 5,9 C 12,4 km/h (3 Bft) 98 %
22.02.2019 22:20 6,1 C 90 % 1040,4 hPa 0,0 l/m 3,0 km/h (1 Bft) O 98 4,6 C 6,1 C 8,2 km/h (2 Bft) 100 %
22.02.2019 22:10 6,4 C 90 % 1040,1 hPa 0,0 l/m 3,1 km/h (1 Bft) O 98 4,9 C 6,4 C 12,4 km/h (3 Bft) 100 %
22.02.2019 22:00 6,6 C 90 % 1040,0 hPa 0,0 l/m 4,9 km/h (1 Bft) SO 144 5,1 C 6,6 C 16,5 km/h (3 Bft) 100 %
22.02.2019 21:50 6,8 C 90 % 1040,1 hPa 0,0 l/m 6,7 km/h (2 Bft) O-NO 78 5,3 C 6,6 C 16,5 km/h (3 Bft) 100 %
22.02.2019 21:40 7,0 C 90 % 1039,9 hPa 0,0 l/m 5,3 km/h (1 Bft) O 100 5,5 C 7,0 C 20,6 km/h (4 Bft) 100 %
22.02.2019 21:30 7,2 C 91 % 1039,9 hPa 0,0 l/m 6,1 km/h (2 Bft) O-SO 111 5,8 C 7,2 C 16,5 km/h (3 Bft) 99 %
22.02.2019 21:20 7,3 C 91 % 1040,0 hPa 0,0 l/m 5,7 km/h (1 Bft) O 95 5,9 C 7,3 C 14,4 km/h (3 Bft) 98 %
22.02.2019 21:10 7,4 C 91 % 1039,8 hPa 0,0 l/m 8,6 km/h (2 Bft) O-SO 107 6,0 C 5,7 C 18,5 km/h (3 Bft) 100 %
22.02.2019 21:00 7,6 C 91 % 1039,9 hPa 0,0 l/m 7,2 km/h (2 Bft) O-SO 113 6,2 C 7,0 C 16,5 km/h (3 Bft) 100 %
22.02.2019 20:50 7,6 C 90 % 1039,8 hPa 0,0 l/m 5,8 km/h (2 Bft) NO 53 6,1 C 7,6 C 14,4 km/h (3 Bft) 99 %
22.02.2019 20:40 7,7 C 90 % 1039,6 hPa 0,0 l/m 5,8 km/h (2 Bft) O 97 6,2 C 7,7 C 18,5 km/h (3 Bft) 100 %
22.02.2019 20:30 7,8 C 90 % 1039,7 hPa 0,0 l/m 7,9 km/h (2 Bft) SO 131 6,3 C 6,6 C 22,7 km/h (4 Bft) 99 %
22.02.2019 20:20 7,9 C 90 % 1039,9 hPa 0,0 l/m 8,0 km/h (2 Bft) O 101 6,4 C 6,6 C 20,6 km/h (4 Bft) 99 %
22.02.2019 20:10 8,1 C 90 % 1039,9 hPa 0,0 l/m 4,9 km/h (1 Bft) O 84 6,6 C 8,1 C 14,4 km/h (3 Bft) 100 %
22.02.2019 20:00 8,1 C 90 % 1039,7 hPa 0,0 l/m 5,6 km/h (1 Bft) O-SO 109 6,6 C 8,1 C 16,5 km/h (3 Bft) 99 %
22.02.2019 19:50 8,2 C 90 % 1039,5 hPa 0,0 l/m 6,8 km/h (2 Bft) O-SO 110 6,7 C 7,9 C 16,5 km/h (3 Bft) 100 %
22.02.2019 19:40 8,3 C 90 % 1039,6 hPa 0,0 l/m 4,5 km/h (1 Bft) O-SO 121 6,8 C 8,3 C 14,4 km/h (3 Bft) 99 %
22.02.2019 19:30 8,4 C 91 % 1039,5 hPa 0,0 l/m 4,5 km/h (1 Bft) O-SO 111 7,0 C 8,4 C 12,4 km/h (3 Bft) 99 %
22.02.2019 19:20 8,5 C 91 % 1039,6 hPa 0,0 l/m 5,4 km/h (1 Bft) O-NO 59 7,1 C 8,5 C 14,4 km/h (3 Bft) 100 %
22.02.2019 19:10 8,6 C 91 % 1039,5 hPa 0,0 l/m 4,4 km/h (1 Bft) O-SO 111 7,2 C 8,6 C 10,3 km/h (2 Bft) 99 %
22.02.2019 19:00 8,6 C 90 % 1039,3 hPa 0,0 l/m 5,5 km/h (1 Bft) O 80 7,1 C 8,6 C 14,4 km/h (3 Bft) 99 %
22.02.2019 18:50 8,7 C 91 % 1039,3 hPa 0,0 l/m 3,4 km/h (1 Bft) O 84 7,3 C 8,7 C 12,4 km/h (3 Bft) 98 %
22.02.2019 18:40 8,8 C 90 % 1039,2 hPa 0,0 l/m 5,6 km/h (1 Bft) O-NO 76 7,3 C 8,8 C 14,4 km/h (3 Bft) 99 %
22.02.2019 18:30 8,9 C 90 % 1039,2 hPa 0,0 l/m 4,4 km/h (1 Bft) O-SO 118 7,4 C 8,9 C 14,4 km/h (3 Bft) 100 %
22.02.2019 18:20 9,0 C 90 % 1039,1 hPa 0,0 l/m 3,7 km/h (1 Bft) O 87 7,4 C 9,0 C 12,4 km/h (3 Bft) 99 %
22.02.2019 18:10 9,1 C 90 % 1038,8 hPa 0,0 l/m 5,4 km/h (1 Bft) O 94 7,5 C 9,1 C 12,4 km/h (3 Bft) 99 %
22.02.2019 18:00 9,2 C 90 % 1039,0 hPa 0,0 l/m 3,5 km/h (1 Bft) O-SO 103 7,6 C 9,2 C 10,3 km/h (2 Bft) 99 %
22.02.2019 17:50 9,3 C 90 % 1038,8 hPa 0,0 l/m 3,0 km/h (1 Bft) O-SO 110 7,7 C 9,3 C 8,2 km/h (2 Bft) 98 %
22.02.2019 17:40 9,3 C 89 % 1038,7 hPa 0,0 l/m 3,8 km/h (1 Bft) O 88 7,6 C 9,3 C 14,4 km/h (3 Bft) 98 %
22.02.2019 17:30 9,4 C 89 % 1038,5 hPa 0,0 l/m 4,6 km/h (1 Bft) S-SO 160 7,7 C 9,4 C 8,2 km/h (2 Bft) 97 %
22.02.2019 17:20 9,6 C 88 % 1038,6 hPa 0,0 l/m 5,1 km/h (1 Bft) N-NO 32 7,7 C 9,6 C 14,4 km/h (3 Bft) 98 %
22.02.2019 17:10 9,7 C 88 % 1038,7 hPa 0,0 l/m 2,5 km/h (1 Bft) NO 38 7,8 C 9,7 C 12,4 km/h (3 Bft) 99 %
22.02.2019 17:00 9,7 C 87 % 1038,7 hPa 0,0 l/m 2,6 km/h (1 Bft) O 92 7,6 C 9,7 C 10,3 km/h (2 Bft) 99 %
22.02.2019 16:50 9,7 C 87 % 1038,3 hPa 0,0 l/m 3,9 km/h (1 Bft) SO 137 7,6 C 9,7 C 12,4 km/h (3 Bft) 98 %
22.02.2019 16:40 9,8 C 87 % 1038,3 hPa 0,0 l/m 5,0 km/h (1 Bft) SO 132 7,7 C 9,8 C 14,4 km/h (3 Bft) 99 %
22.02.2019 16:30 9,8 C 87 % 1038,1 hPa 0,0 l/m 3,4 km/h (1 Bft) O-SO 111 7,7 C 9,8 C 8,2 km/h (2 Bft) 99 %
22.02.2019 16:20 9,7 C 88 % 1038,1 hPa 0,0 l/m 4,2 km/h (1 Bft) SO 130 7,8 C 9,7 C 14,4 km/h (3 Bft) 100 %
22.02.2019 16:10 9,7 C 88 % 1038,0 hPa 0,0 l/m 5,4 km/h (1 Bft) O-SO 123 7,8 C 9,7 C 14,4 km/h (3 Bft) 100 %
22.02.2019 16:00 9,6 C 88 % 1038,1 hPa 0,0 l/m 4,6 km/h (1 Bft) O-NO 78 7,7 C 9,6 C 12,4 km/h (3 Bft) 100 %
22.02.2019 15:50 9,4 C 88 % 1038,0 hPa 0,0 l/m 4,7 km/h (1 Bft) O 84 7,5 C 9,4 C 14,4 km/h (3 Bft) 100 %
22.02.2019 15:40 9,4 C 89 % 1038,0 hPa 0,0 l/m 4,1 km/h (1 Bft) SO 138 7,7 C 9,4 C 8,2 km/h (2 Bft) 99 %
22.02.2019 15:30 9,4 C 89 % 1038,2 hPa 0,0 l/m 4,8 km/h (1 Bft) O-SO 122 7,7 C 9,4 C 12,4 km/h (3 Bft) 100 %
22.02.2019 15:20 9,4 C 90 % 1038,2 hPa 0,0 l/m 4,2 km/h (1 Bft) O-SO 120 7,8 C 9,4 C 14,4 km/h (3 Bft) 99 %
22.02.2019 15:10 9,4 C 89 % 1038,1 hPa 0,0 l/m 4,7 km/h (1 Bft) O-NO 74 7,7 C 9,4 C 14,4 km/h (3 Bft) 100 %
22.02.2019 15:00 9,4 C 89 % 1038,0 hPa 0,0 l/m 4,5 km/h (1 Bft) O-NO 71 7,7 C 9,4 C 12,4 km/h (3 Bft) 99 %
22.02.2019 14:50 9,4 C 89 % 1037,8 hPa 0,0 l/m 5,9 km/h (2 Bft) O-NO 71 7,7 C 9,4 C 14,4 km/h (3 Bft) 100 %
22.02.2019 14:40 9,3 C 90 % 1037,8 hPa 0,0 l/m 4,6 km/h (1 Bft) O-SO 113 7,7 C 9,3 C 14,4 km/h (3 Bft) 99 %
22.02.2019 14:30 9,2 C 90 % 1037,9 hPa 0,0 l/m 5,8 km/h (2 Bft) O 80 7,6 C 9,2 C 16,5 km/h (3 Bft) 100 %
22.02.2019 14:20 9,2 C 90 % 1038,1 hPa 0,0 l/m 4,9 km/h (1 Bft) NO 45 7,6 C 9,2 C 16,5 km/h (3 Bft) 97 %
22.02.2019 14:10 9,2 C 91 % 1038,0 hPa 0,0 l/m 4,9 km/h (1 Bft) N-NO 26 7,8 C 9,2 C 12,4 km/h (3 Bft) 99 %
22.02.2019 14:00 9,2 C 91 % 1038,0 hPa 0,0 l/m 4,6 km/h (1 Bft) O-SO 106 7,8 C 9,2 C 12,4 km/h (3 Bft) 99 %
_ Min-Zeit 02:50 13:20 14:40 - 02:50 - - 02:10 08:10 15:40 10:10
Minimum _ 2,0 C 64 % 1037,8 hPa - 2,0 km/h (1 Bft) - - 1,2 C 1,3 C 8,2 km/h (2 Bft) 97 %
_ Max-Zeit 16:30 05:50 22:30 14:00 23:30 - - 15:20 16:30 20:30 14:50
Maximum _ 9,8 C 96 % 1040,7 hPa 0,0 l/m 8,8 km/h
O (2 Bft)
- - 7,8 C 9,8 C 22,7 km/h
O (4 Bft)
100 %
Durchschnitt _ 5,9 C 89 % 1039,5 hPa #0,0 l/m 4,9 km/h (1 Bft) O-SO - 4,2 C 5,8 C 14,5 km/h (3 Bft) 99 %